Time;durP1;ratioP1;P1;durP2;ratioP2;P2;SDS_P1;SDS_P2;PMS_P1;PMS_P2;Temp;Humidity;BMP_temperature;BMP_pressure;BME280_temperature;BME280_humidity;BME280_pressure;Samples;Min_cycle;Max_cycle;Signal;HPM_P1;HPM_P2
2023/05/02 00:02:14;;;;;;;7.67;4.00;;;;;;;;;;5031396;28;20289;-58
2023/05/02 00:04:40;;;;;;;5.23;3.50;;;;;;;;;;5031705;28;20745;-58
2023/05/02 00:07:06;;;;;;;5.30;3.60;;;;;;;;;;5031489;28;20295;-58
2023/05/02 00:09:34;;;;;;;4.77;3.87;;;;;;;;;;5031557;28;20232;-58
2023/05/02 00:12:01;;;;;;;6.07;4.10;;;;;;;;;;5031329;28;20728;-58
2023/05/02 00:14:27;;;;;;;7.23;3.97;;;;;;;;;;5031248;28;20235;-58
2023/05/02 00:16:53;;;;;;;5.97;4.17;;;;;;;;;;5031385;28;20221;-58
2023/05/02 00:19:19;;;;;;;6.10;4.13;;;;;;;;;;5031395;28;20574;-58
2023/05/02 00:21:47;;;;;;;5.37;4.50;;;;;;;;;;5031315;28;20205;-59
2023/05/02 00:24:13;;;;;;;5.40;4.47;;;;;;;;;;5031210;28;20205;-58
2023/05/02 00:26:40;;;;;;;5.67;5.13;;;;;;;;;;5031078;28;20211;-58
2023/05/02 00:29:07;;;;;;;7.67;4.83;;;;;;;;;;5031334;28;20268;-58
2023/05/02 00:31:34;;;;;;;8.13;6.60;;;;;;;;;;5031175;28;20216;-58
2023/05/02 00:34:00;;;;;;;7.00;6.30;;;;;;;;;;5031242;28;20201;-58
2023/05/02 00:36:26;;;;;;;8.07;7.00;;;;;;;;;;5031060;28;20655;-58
2023/05/02 00:38:52;;;;;;;6.87;6.27;;;;;;;;;;5033737;28;20218;-58
2023/05/02 00:41:18;;;;;;;8.27;7.33;;;;;;;;;;5035101;28;20301;-58
2023/05/02 00:43:45;;;;;;;6.30;5.70;;;;;;;;;;5035293;28;20706;-56
2023/05/02 00:46:11;;;;;;;9.43;7.30;;;;;;;;;;5035032;28;20236;-56
2023/05/02 00:48:37;;;;;;;8.07;7.27;;;;;;;;;;5035017;28;20251;-58
2023/05/02 00:51:04;;;;;;;8.93;8.03;;;;;;;;;;5035021;28;20659;-56
2023/05/02 00:53:30;;;;;;;8.60;7.70;;;;;;;;;;5034857;28;20288;-56
2023/05/02 00:55:57;;;;;;;10.47;8.70;;;;;;;;;;5034898;28;20201;-57
2023/05/02 00:58:23;;;;;;;9.33;7.93;;;;;;;;;;5034889;28;20197;-59
2023/05/02 01:00:58;;;;;;;10.90;9.07;;;;;;;;;;5034906;28;20231;-58
2023/05/02 01:03:28;;;;;;;12.07;10.10;;;;;;;;;;5034720;28;20286;-57
2023/05/02 01:05:58;;;;;;;11.43;10.20;;;;;;;;;;5034609;28;20773;-56
2023/05/02 01:08:28;;;;;;;10.50;9.40;;;;;;;;;;5034521;28;20255;-59
2023/05/02 01:10:59;;;;;;;12.83;10.60;;;;;;;;;;5034704;28;20204;-56
2023/05/02 01:13:27;;;;;;;14.10;12.03;;;;;;;;;;5034413;28;20204;-56
2023/05/02 01:15:56;;;;;;;12.63;11.30;;;;;;;;;;5034549;28;20319;-59
2023/05/02 01:18:24;;;;;;;15.23;11.87;;;;;;;;;;5034523;28;20243;-59
2023/05/02 01:20:53;;;;;;;12.33;11.03;;;;;;;;;;5034609;28;20208;-57
2023/05/02 01:23:22;;;;;;;12.23;10.93;;;;;;;;;;5034477;28;20197;-57
2023/05/02 01:26:01;;;;;;;13.73;11.43;;;;;;;;;;5034501;28;20217;-57
2023/05/02 01:28:31;;;;;;;13.00;11.60;;;;;;;;;;5034559;28;20224;-57
2023/05/02 01:30:59;;;;;;;12.47;11.17;;;;;;;;;;5034266;28;20205;-58
2023/05/02 01:33:26;;;;;;;12.10;10.83;;;;;;;;;;5034133;28;20207;-57
2023/05/02 01:35:53;;;;;;;14.20;11.70;;;;;;;;;;5034361;28;20208;-57
2023/05/02 01:38:20;;;;;;;14.67;10.97;;;;;;;;;;5033962;28;20678;-57
2023/05/02 01:40:47;;;;;;;14.60;11.90;;;;;;;;;;5034185;28;20304;-57
2023/05/02 01:43:14;;;;;;;14.37;12.03;;;;;;;;;;5034010;28;20205;-57
2023/05/02 01:45:40;;;;;;;14.90;13.37;;;;;;;;;;5034144;28;20246;-57
2023/05/02 01:48:08;;;;;;;14.07;12.27;;;;;;;;;;5033947;28;20708;-57
2023/05/02 01:50:36;;;;;;;15.40;13.07;;;;;;;;;;5033646;28;20208;-57
2023/05/02 01:53:03;;;;;;;14.40;12.80;;;;;;;;;;5033911;28;20247;-57
2023/05/02 01:55:29;;;;;;;16.60;13.90;;;;;;;;;;5033835;28;20204;-57
2023/05/02 01:57:56;;;;;;;15.00;13.50;;;;;;;;;;5033844;28;20272;-57
2023/05/02 02:00:23;;;;;;;14.40;12.83;;;;;;;;;;5033620;28;20247;-57
2023/05/02 02:02:50;;;;;;;17.70;14.23;;;;;;;;;;5033839;28;20201;-58
2023/05/02 02:05:18;;;;;;;16.47;14.23;;;;;;;;;;5033715;28;20220;-56
2023/05/02 02:07:44;;;;;;;16.60;14.80;;;;;;;;;;5033552;28;20201;-57
2023/05/02 02:10:10;;;;;;;15.73;14.13;;;;;;;;;;5033695;28;20224;-57
2023/05/02 02:12:39;;;;;;;15.37;13.77;;;;;;;;;;5033664;28;20224;-57
2023/05/02 02:15:08;;;;;;;15.90;14.13;;;;;;;;;;5033599;28;20200;-57
2023/05/02 02:17:37;;;;;;;17.40;14.60;;;;;;;;;;5033578;28;20244;-58
2023/05/02 02:20:05;;;;;;;16.57;14.70;;;;;;;;;;5033944;28;20204;-58
2023/05/02 02:22:35;;;;;;;18.30;15.13;;;;;;;;;;5033253;28;20203;-58
2023/05/02 02:25:02;;;;;;;15.60;13.23;;;;;;;;;;5033656;28;20212;-57
2023/05/02 02:27:29;;;;;;;16.07;13.57;;;;;;;;;;5033099;28;20204;-57
2023/05/02 02:29:55;;;;;;;19.07;14.20;;;;;;;;;;5032963;28;20780;-57
2023/05/02 02:32:21;;;;;;;16.67;14.17;;;;;;;;;;5033437;28;20204;-58
2023/05/02 02:34:47;;;;;;;17.60;15.07;;;;;;;;;;5033009;28;20197;-57
2023/05/02 02:37:15;;;;;;;16.83;14.67;;;;;;;;;;5033090;28;20512;-57
2023/05/02 02:39:47;;;;;;;15.00;13.40;;;;;;;;;;5032946;28;20690;-57
2023/05/02 02:42:15;;;;;;;16.07;14.10;;;;;;;;;;5032963;28;20236;-57
2023/05/02 02:44:46;;;;;;;15.87;13.77;;;;;;;;;;5032737;28;20209;-57
2023/05/02 02:47:17;;;;;;;18.00;13.93;;;;;;;;;;5032875;28;20284;-57
2023/05/02 02:49:47;;;;;;;16.77;13.70;;;;;;;;;;5032758;28;20225;-57
2023/05/02 02:52:17;;;;;;;16.77;13.30;;;;;;;;;;5032744;28;20200;-57
2023/05/02 02:54:46;;;;;;;17.13;13.30;;;;;;;;;;5032669;28;20197;-57
2023/05/02 02:57:16;;;;;;;16.13;13.13;;;;;;;;;;5032659;28;20400;-57
2023/05/02 02:59:46;;;;;;;14.67;12.47;;;;;;;;;;5032598;28;20204;-57
2023/05/02 03:02:12;;;;;;;15.47;13.67;;;;;;;;;;5031828;28;20205;-57
2023/05/02 03:04:40;;;;;;;18.03;13.70;;;;;;;;;;5032377;28;20256;-57
2023/05/02 03:07:07;;;;;;;15.90;12.63;;;;;;;;;;5032551;28;20318;-57
2023/05/02 03:09:42;;;;;;;18.67;14.10;;;;;;;;;;5032394;28;20634;-57
2023/05/02 03:12:10;;;;;;;16.87;13.37;;;;;;;;;;5032429;28;20669;-57
2023/05/02 03:14:36;;;;;;;15.10;13.50;;;;;;;;;;5032343;28;20208;-57
2023/05/02 03:17:02;;;;;;;16.17;13.40;;;;;;;;;;5032351;28;20197;-57
2023/05/02 03:19:28;;;;;;;17.63;14.07;;;;;;;;;;5032256;28;20197;-57
2023/05/02 03:21:54;;;;;;;18.87;15.43;;;;;;;;;;5032189;28;20291;-57
2023/05/02 03:24:21;;;;;;;18.97;15.30;;;;;;;;;;5032521;28;20205;-56
2023/05/02 03:26:47;;;;;;;17.77;15.27;;;;;;;;;;5031996;28;20615;-55
2023/05/02 03:29:14;;;;;;;19.93;15.77;;;;;;;;;;5031948;28;20307;-55
2023/05/02 03:31:40;;;;;;;18.77;14.97;;;;;;;;;;5032019;28;20663;-56
2023/05/02 03:34:06;;;;;;;19.17;15.77;;;;;;;;;;5032233;28;20251;-56
2023/05/02 03:36:32;;;;;;;19.70;16.27;;;;;;;;;;5031870;28;20201;-56
2023/05/02 03:38:58;;;;;;;15.63;13.93;;;;;;;;;;5031937;28;20280;-56
2023/05/02 03:41:24;;;;;;;20.20;13.50;;;;;;;;;;5031912;28;20542;-56
2023/05/02 03:43:50;;;;;;;17.20;13.30;;;;;;;;;;5031660;28;20213;-56
2023/05/02 03:46:17;;;;;;;14.03;11.07;;;;;;;;;;5031798;28;20295;-56
2023/05/02 03:48:45;;;;;;;13.10;10.10;;;;;;;;;;5031403;28;20232;-57
2023/05/02 03:51:11;;;;;;;14.03;10.10;;;;;;;;;;5031809;28;20301;-56
2023/05/02 03:53:37;;;;;;;10.80;9.03;;;;;;;;;;5031649;28;20650;-56
2023/05/02 03:56:03;;;;;;;9.57;8.07;;;;;;;;;;5031741;28;20195;-57
2023/05/02 03:58:29;;;;;;;10.83;8.13;;;;;;;;;;5031686;28;20244;-56
2023/05/02 04:00:55;;;;;;;9.33;6.73;;;;;;;;;;5031460;28;20659;-57
2023/05/02 04:03:23;;;;;;;9.67;5.87;;;;;;;;;;5031614;28;20224;-57
2023/05/02 04:05:50;;;;;;;6.33;4.47;;;;;;;;;;5031501;28;20229;-57
2023/05/02 04:08:16;;;;;;;5.27;4.77;;;;;;;;;;5031462;28;20228;-57
2023/05/02 04:10:42;;;;;;;5.17;4.03;;;;;;;;;;5031521;28;20274;-56
2023/05/02 04:13:08;;;;;;;3.40;3.10;;;;;;;;;;5031370;28;20204;-56
2023/05/02 04:15:34;;;;;;;3.77;2.63;;;;;;;;;;5031452;28;20203;-56
2023/05/02 04:18:00;;;;;;;2.57;2.37;;;;;;;;;;5031353;28;20251;-57
2023/05/02 04:20:28;;;;;;;2.50;2.30;;;;;;;;;;5031276;28;20186;-56
2023/05/02 04:22:54;;;;;;;2.80;2.30;;;;;;;;;;5031218;28;20715;-56
2023/05/02 04:25:20;;;;;;;3.57;3.00;;;;;;;;;;5031455;28;20549;-57
2023/05/02 04:27:46;;;;;;;7.23;2.83;;;;;;;;;;5031044;28;20246;-57
2023/05/02 04:30:12;;;;;;;4.47;2.90;;;;;;;;;;5031263;28;20228;-57
2023/05/02 04:32:38;;;;;;;8.27;3.43;;;;;;;;;;5031186;28;20251;-57
2023/05/02 04:35:05;;;;;;;8.13;3.30;;;;;;;;;;5031364;28;20667;-58
2023/05/02 04:37:33;;;;;;;5.03;3.47;;;;;;;;;;5031183;28;20200;-57
2023/05/02 04:39:59;;;;;;;8.07;3.40;;;;;;;;;;5031107;28;20607;-57
2023/05/02 04:42:24;;;;;;;6.53;3.57;;;;;;;;;;5031019;28;20236;-58
2023/05/02 04:44:50;;;;;;;6.43;3.33;;;;;;;;;;5031121;28;20208;-57
2023/05/02 04:47:16;;;;;;;8.17;3.90;;;;;;;;;;5031170;28;20200;-57
2023/05/02 04:49:43;;;;;;;9.17;3.70;;;;;;;;;;5030906;28;20703;-57
2023/05/02 04:52:09;;;;;;;9.97;4.07;;;;;;;;;;5030918;28;20197;-58
2023/05/02 04:54:36;;;;;;;7.87;3.20;;;;;;;;;;5031094;28;20220;-57
2023/05/02 04:57:05;;;;;;;11.07;4.37;;;;;;;;;;5030985;28;20220;-56
2023/05/02 04:59:31;;;;;;;11.23;4.17;;;;;;;;;;5030884;28;20197;-57
2023/05/02 05:01:57;;;;;;;16.27;4.80;;;;;;;;;;5031137;28;20197;-57
2023/05/02 05:04:24;;;;;;;10.13;4.17;;;;;;;;;;5030735;28;20221;-57
2023/05/02 05:06:50;;;;;;;10.67;4.27;;;;;;;;;;5030770;28;20233;-57
2023/05/02 05:09:16;;;;;;;12.83;4.57;;;;;;;;;;5030695;28;20735;-57
2023/05/02 05:11:45;;;;;;;12.33;4.40;;;;;;;;;;5030655;28;20456;-58
2023/05/02 05:14:11;;;;;;;16.33;4.47;;;;;;;;;;5030930;28;20284;-57
2023/05/02 05:16:37;;;;;;;10.53;4.57;;;;;;;;;;5030789;28;20247;-57
2023/05/02 05:19:04;;;;;;;12.63;4.23;;;;;;;;;;5030213;28;20193;-57
2023/05/02 05:21:30;;;;;;;10.63;4.80;;;;;;;;;;5030745;28;20201;-58
2023/05/02 05:23:56;;;;;;;11.27;4.40;;;;;;;;;;5030922;28;20203;-57
2023/05/02 05:26:23;;;;;;;14.87;4.73;;;;;;;;;;5034460;28;20231;-57
2023/05/02 05:28:51;;;;;;;10.70;4.33;;;;;;;;;;5034170;28;20228;-57
2023/05/02 05:31:17;;;;;;;9.80;3.60;;;;;;;;;;5034445;28;20201;-57
2023/05/02 05:33:43;;;;;;;12.63;4.40;;;;;;;;;;5034102;28;20587;-57
2023/05/02 05:36:10;;;;;;;11.47;3.83;;;;;;;;;;5034163;28;20196;-58
2023/05/02 05:38:36;;;;;;;13.57;4.37;;;;;;;;;;5034263;28;20197;-58
2023/05/02 05:41:02;;;;;;;9.57;4.13;;;;;;;;;;5033975;28;20227;-58
2023/05/02 05:43:28;;;;;;;8.13;3.33;;;;;;;;;;5034050;28;20216;-57
2023/05/02 05:45:55;;;;;;;12.37;3.80;;;;;;;;;;5033956;28;20272;-57
2023/05/02 05:48:22;;;;;;;15.67;4.20;;;;;;;;;;5034147;28;20205;-58
2023/05/02 05:50:48;;;;;;;16.00;3.93;;;;;;;;;;5033751;28;20205;-58
2023/05/02 05:53:14;;;;;;;13.77;4.33;;;;;;;;;;5033992;28;20299;-58
2023/05/02 05:55:41;;;;;;;10.80;4.20;;;;;;;;;;5033815;28;20193;-57
2023/05/02 05:58:07;;;;;;;12.10;3.83;;;;;;;;;;5033816;28;20540;-58
2023/05/02 06:00:34;;;;;;;8.73;3.97;;;;;;;;;;5033898;28;20201;-58
2023/05/02 06:03:02;;;;;;;14.10;4.37;;;;;;;;;;5033534;28;20201;-56
2023/05/02 06:05:29;;;;;;;11.43;4.23;;;;;;;;;;5033705;28;20236;-58
2023/05/02 06:07:55;;;;;;;16.50;4.17;;;;;;;;;;5033906;28;20197;-58
2023/05/02 06:10:22;;;;;;;16.77;4.37;;;;;;;;;;5033845;28;20335;-58
2023/05/02 06:12:48;;;;;;;13.53;4.20;;;;;;;;;;5033454;28;20209;-58
2023/05/02 06:15:14;;;;;;;14.33;3.97;;;;;;;;;;5033431;28;20250;-58
2023/05/02 06:17:39;;;;;;;18.03;4.67;;;;;;;;;;5033356;28;20193;-57
2023/05/02 06:20:08;;;;;;;13.47;4.53;;;;;;;;;;5033471;28;20668;-57
2023/05/02 06:22:34;;;;;;;17.23;4.50;;;;;;;;;;5033456;28;20253;-57
2023/05/02 06:25:00;;;;;;;17.57;5.13;;;;;;;;;;5033148;28;20211;-58
2023/05/02 06:27:26;;;;;;;19.50;3.70;;;;;;;;;;5033184;28;20208;-58
2023/05/02 06:29:52;;;;;;;15.40;4.03;;;;;;;;;;5033128;28;20232;-58
2023/05/02 06:32:18;;;;;;;16.07;4.87;;;;;;;;;;5033207;28;20729;-56
2023/05/02 06:34:44;;;;;;;8.50;3.37;;;;;;;;;;5033118;28;20281;-55
2023/05/02 06:37:11;;;;;;;12.30;3.60;;;;;;;;;;5032047;28;20562;-56
2023/05/02 06:39:37;;;;;;;9.77;4.13;;;;;;;;;;5033186;28;20251;-56
2023/05/02 06:42:03;;;;;;;15.97;4.10;;;;;;;;;;5033255;28;20197;-56
2023/05/02 06:44:29;;;;;;;16.50;4.10;;;;;;;;;;5033272;28;20205;-56
2023/05/02 06:46:55;;;;;;;21.13;4.40;;;;;;;;;;5031042;28;20247;-56
2023/05/02 06:49:21;;;;;;;15.70;3.97;;;;;;;;;;5032487;28;20274;-56
2023/05/02 06:51:47;;;;;;;18.70;4.47;;;;;;;;;;5032545;28;20200;-56
2023/05/02 06:54:15;;;;;;;13.70;3.83;;;;;;;;;;5032443;28;20223;-56
2023/05/02 06:56:41;;;;;;;12.90;3.97;;;;;;;;;;5032412;28;20571;-56
2023/05/02 06:59:07;;;;;;;10.73;3.50;;;;;;;;;;5032495;28;20221;-56
2023/05/02 07:01:33;;;;;;;15.30;4.10;;;;;;;;;;5032584;28;20196;-56
2023/05/02 07:04:00;;;;;;;12.50;3.50;;;;;;;;;;5032358;28;20220;-56
2023/05/02 07:06:26;;;;;;;7.17;3.00;;;;;;;;;;5032359;28;20232;-56
2023/05/02 07:08:52;;;;;;;10.80;3.60;;;;;;;;;;5032314;28;20275;-56
2023/05/02 07:11:22;;;;;;;13.13;3.80;;;;;;;;;;5032616;28;20204;-56
2023/05/02 07:13:48;;;;;;;11.80;3.83;;;;;;;;;;5032415;28;20732;-56
2023/05/02 07:16:14;;;;;;;7.87;3.57;;;;;;;;;;5032238;28;20200;-56
2023/05/02 07:18:41;;;;;;;8.63;3.10;;;;;;;;;;5032299;28;20254;-56
2023/05/02 07:21:07;;;;;;;8.53;2.70;;;;;;;;;;5032059;28;20211;-56
2023/05/02 07:23:33;;;;;;;12.03;4.63;;;;;;;;;;5032145;28;20216;-56
2023/05/02 07:25:59;;;;;;;11.07;3.30;;;;;;;;;;5032132;28;20201;-56
2023/05/02 07:28:26;;;;;;;11.63;3.10;;;;;;;;;;5031970;28;20211;-56
2023/05/02 07:30:53;;;;;;;9.43;2.97;;;;;;;;;;5031822;28;20312;-57
2023/05/02 07:33:18;;;;;;;7.03;3.10;;;;;;;;;;5032225;28;20197;-57
2023/05/02 07:35:44;;;;;;;11.77;3.73;;;;;;;;;;5031824;28;20283;-58
2023/05/02 07:38:11;;;;;;;9.73;3.00;;;;;;;;;;5031788;28;20271;-57
2023/05/02 07:40:36;;;;;;;8.17;3.10;;;;;;;;;;5032105;28;20372;-57
2023/05/02 07:43:03;;;;;;;10.83;3.60;;;;;;;;;;5031643;28;20228;-58
2023/05/02 07:45:30;;;;;;;8.47;3.30;;;;;;;;;;5031944;28;20366;-57
2023/05/02 07:47:56;;;;;;;9.37;2.97;;;;;;;;;;5031356;28;20206;-57
2023/05/02 07:50:22;;;;;;;7.13;2.80;;;;;;;;;;5031756;28;20228;-57
2023/05/02 07:52:48;;;;;;;8.93;3.13;;;;;;;;;;5031805;28;20232;-57
2023/05/02 07:55:14;;;;;;;5.83;2.80;;;;;;;;;;5031597;28;20205;-57
2023/05/02 07:57:41;;;;;;;8.00;2.50;;;;;;;;;;5031548;28;20250;-57
2023/05/02 08:00:08;;;;;;;9.83;3.13;;;;;;;;;;5031623;28;20197;-57
2023/05/02 08:02:36;;;;;;;8.03;2.47;;;;;;;;;;5031691;28;20201;-57
2023/05/02 08:05:02;;;;;;;9.10;3.30;;;;;;;;;;5031284;28;20232;-58
2023/05/02 08:07:28;;;;;;;6.57;2.83;;;;;;;;;;5031092;28;20970;-59
2023/05/02 08:09:54;;;;;;;6.00;2.63;;;;;;;;;;5031277;28;20256;-59
2023/05/02 08:12:20;;;;;;;9.50;3.00;;;;;;;;;;5031567;28;20205;-58
2023/05/02 08:14:46;;;;;;;5.20;2.90;;;;;;;;;;5031230;28;20200;-58
2023/05/02 08:17:12;;;;;;;7.40;3.30;;;;;;;;;;5026642;28;20212;-58
2023/05/02 08:19:39;;;;;;;8.40;3.07;;;;;;;;;;5049184;28;20193;-58
2023/05/02 08:22:05;;;;;;;9.27;3.00;;;;;;;;;;5049441;28;20285;-59
2023/05/02 08:24:32;;;;;;;8.43;3.20;;;;;;;;;;5051125;28;20236;-59
2023/05/02 08:26:59;;;;;;;6.07;3.00;;;;;;;;;;5050734;28;20681;-59
2023/05/02 08:29:25;;;;;;;6.83;2.50;;;;;;;;;;5051163;28;20305;-58
2023/05/02 08:31:51;;;;;;;10.43;3.63;;;;;;;;;;5051310;28;20670;-58
2023/05/02 08:34:17;;;;;;;6.33;2.60;;;;;;;;;;5051193;28;20238;-60
2023/05/02 08:36:44;;;;;;;10.23;3.20;;;;;;;;;;5051191;28;20200;-61
2023/05/02 08:39:10;;;;;;;6.30;3.00;;;;;;;;;;5050997;28;20231;-59
2023/05/02 08:41:37;;;;;;;6.40;2.60;;;;;;;;;;5051202;28;20189;-59
2023/05/02 08:44:03;;;;;;;5.50;2.10;;;;;;;;;;5051037;28;20200;-58
2023/05/02 08:46:30;;;;;;;4.47;2.30;;;;;;;;;;5051049;28;20204;-58
2023/05/02 08:48:57;;;;;;;5.63;1.97;;;;;;;;;;5050682;28;20220;-58
2023/05/02 08:51:24;;;;;;;10.20;2.70;;;;;;;;;;5051056;28;20211;-58
2023/05/02 08:53:51;;;;;;;5.53;2.43;;;;;;;;;;5051018;28;20192;-58
2023/05/02 08:56:17;;;;;;;8.40;2.47;;;;;;;;;;5050840;28;20662;-58
2023/05/02 08:58:43;;;;;;;5.43;2.37;;;;;;;;;;5051172;28;20199;-59
2023/05/02 09:01:11;;;;;;;5.70;2.80;;;;;;;;;;5054535;28;20210;-59
2023/05/02 09:03:37;;;;;;;5.47;2.33;;;;;;;;;;5054760;28;20223;-58
2023/05/02 09:06:05;;;;;;;6.20;2.63;;;;;;;;;;5054378;28;20236;-59
2023/05/02 09:08:31;;;;;;;6.20;2.77;;;;;;;;;;5054624;28;20275;-58
2023/05/02 09:10:58;;;;;;;5.70;2.40;;;;;;;;;;5054408;28;20619;-59
2023/05/02 09:13:28;;;;;;;5.20;2.57;;;;;;;;;;5054463;28;20266;-58
2023/05/02 09:15:57;;;;;;;7.77;2.57;;;;;;;;;;5054434;28;20200;-59
2023/05/02 09:18:24;;;;;;;7.93;3.50;;;;;;;;;;5054449;28;20208;-59
2023/05/02 09:20:50;;;;;;;9.23;3.77;;;;;;;;;;5054495;28;20266;-59
2023/05/02 09:23:16;;;;;;;7.90;3.60;;;;;;;;;;5054240;28;20674;-59
2023/05/02 09:25:42;;;;;;;7.63;3.97;;;;;;;;;;5054171;28;20258;-59
2023/05/02 09:28:09;;;;;;;9.30;3.50;;;;;;;;;;5054129;28;20192;-59
2023/05/02 09:30:36;;;;;;;8.53;3.80;;;;;;;;;;5054209;28;20224;-59
2023/05/02 09:33:02;;;;;;;8.27;3.80;;;;;;;;;;5054148;28;20204;-58
2023/05/02 09:35:28;;;;;;;6.70;4.23;;;;;;;;;;5054198;28;20219;-58
2023/05/02 09:37:54;;;;;;;6.70;4.20;;;;;;;;;;5054083;28;20238;-58
2023/05/02 09:40:20;;;;;;;9.87;4.63;;;;;;;;;;5054037;28;20196;-58
2023/05/02 09:42:46;;;;;;;12.43;4.63;;;;;;;;;;5053855;28;20694;-60
2023/05/02 09:45:23;;;;;;;7.97;4.00;;;;;;;;;;5053815;28;20248;-59
2023/05/02 09:47:50;;;;;;;7.20;4.30;;;;;;;;;;5054028;28;20199;-58
2023/05/02 09:50:37;;;;;;;8.30;3.80;;;;;;;;;;5053622;28;20224;-60
2023/05/02 09:53:04;;;;;;;6.63;3.50;;;;;;;;;;5045746;28;20208;-58
2023/05/02 09:55:30;;;;;;;7.27;3.57;;;;;;;;;;5053794;28;20247;-59
2023/05/02 09:57:56;;;;;;;7.07;3.83;;;;;;;;;;5053685;28;20200;-58
2023/05/02 10:00:37;;;;;;;8.40;3.97;;;;;;;;;;5053491;28;20216;-58
2023/05/02 10:03:05;;;;;;;7.33;3.13;;;;;;;;;;5053534;28;20218;-58
2023/05/02 10:05:32;;;;;;;4.93;2.50;;;;;;;;;;5053498;28;20235;-59
2023/05/02 10:07:59;;;;;;;6.13;2.80;;;;;;;;;;5053598;28;20192;-58
2023/05/02 10:10:25;;;;;;;7.83;3.03;;;;;;;;;;5053282;28;20728;-58
2023/05/02 10:12:53;;;;;;;6.03;2.97;;;;;;;;;;5053560;28;20204;-58
2023/05/02 10:15:20;;;;;;;6.50;2.67;;;;;;;;;;5053395;28;20200;-59
2023/05/02 10:17:49;;;;;;;7.43;2.73;;;;;;;;;;5053277;28;20196;-59
2023/05/02 10:20:21;;;;;;;10.60;3.50;;;;;;;;;;5053268;28;20192;-58
2023/05/02 10:22:49;;;;;;;5.10;2.60;;;;;;;;;;5053281;28;20287;-58
2023/05/02 10:25:15;;;;;;;5.73;2.87;;;;;;;;;;5053029;28;20200;-58
2023/05/02 10:27:41;;;;;;;7.20;3.00;;;;;;;;;;5053094;28;20205;-57
2023/05/02 10:30:08;;;;;;;6.90;2.77;;;;;;;;;;5053100;28;20289;-58
2023/05/02 10:32:36;;;;;;;8.10;3.20;;;;;;;;;;5053337;28;20250;-60
2023/05/02 10:35:04;;;;;;;6.00;2.23;;;;;;;;;;5053129;28;20318;-58
2023/05/02 10:37:32;;;;;;;6.13;2.10;;;;;;;;;;5053161;28;20200;-58
2023/05/02 10:39:59;;;;;;;5.37;2.33;;;;;;;;;;5052892;28;20280;-59
2023/05/02 10:42:25;;;;;;;4.63;2.63;;;;;;;;;;5053009;28;20275;-59
2023/05/02 10:44:51;;;;;;;3.53;2.40;;;;;;;;;;5053069;28;20250;-58
2023/05/02 10:47:18;;;;;;;7.57;2.60;;;;;;;;;;5052734;28;20215;-58
2023/05/02 10:49:51;;;;;;;7.73;2.80;;;;;;;;;;5052792;28;20599;-59
2023/05/02 10:52:27;;;;;;;7.33;2.57;;;;;;;;;;5052827;28;20197;-57
2023/05/02 10:55:08;;;;;;;4.50;2.40;;;;;;;;;;5052778;28;20204;-57
2023/05/02 10:57:35;;;;;;;4.80;2.50;;;;;;;;;;5052670;28;20196;-57
2023/05/02 11:00:20;;;;;;;5.03;2.40;;;;;;;;;;5052629;28;20227;-56
2023/05/02 11:02:46;;;;;;;5.30;2.53;;;;;;;;;;5052666;28;20227;-57
2023/05/02 11:05:13;;;;;;;4.77;2.43;;;;;;;;;;5052083;28;20306;-57
2023/05/02 11:07:40;;;;;;;5.53;2.20;;;;;;;;;;5052372;28;20696;-58
2023/05/02 11:10:26;;;;;;;3.27;2.10;;;;;;;;;;5052796;28;20311;-58
2023/05/02 11:12:52;;;;;;;4.73;2.40;;;;;;;;;;5052588;28;20279;-58
2023/05/02 11:15:33;;;;;;;5.40;2.40;;;;;;;;;;5052309;28;20224;-57
2023/05/02 11:18:00;;;;;;;4.23;2.53;;;;;;;;;;5052222;28;20200;-57
2023/05/02 11:20:26;;;;;;;6.70;2.37;;;;;;;;;;5052088;28;20212;-57
2023/05/02 11:22:55;;;;;;;3.93;2.10;;;;;;;;;;5051929;28;20203;-58
2023/05/02 11:25:31;;;;;;;3.07;2.10;;;;;;;;;;5052173;28;20203;-59
2023/05/02 11:27:57;;;;;;;4.60;2.13;;;;;;;;;;5051716;28;20192;-58
2023/05/02 11:30:36;;;;;;;3.90;1.80;;;;;;;;;;5051915;28;20231;-59
2023/05/02 11:33:14;;;;;;;2.73;2.00;;;;;;;;;;5052055;28;20263;-58
2023/05/02 11:35:41;;;;;;;4.53;1.90;;;;;;;;;;5051942;28;20222;-59
2023/05/02 11:38:10;;;;;;;3.83;2.00;;;;;;;;;;5052048;28;20199;-59
2023/05/02 11:40:36;;;;;;;2.93;1.90;;;;;;;;;;5051897;28;20208;-59
2023/05/02 11:43:12;;;;;;;4.87;2.17;;;;;;;;;;5051825;28;20224;-59
2023/05/02 11:45:38;;;;;;;3.73;1.80;;;;;;;;;;5051911;28;20222;-58
2023/05/02 11:48:05;;;;;;;3.90;1.80;;;;;;;;;;5051912;28;20249;-59
2023/05/02 11:50:31;;;;;;;1.90;1.70;;;;;;;;;;5051455;28;20590;-59
2023/05/02 11:52:58;;;;;;;1.93;1.50;;;;;;;;;;5046026;28;20622;-59
2023/05/02 11:55:26;;;;;;;2.87;1.63;;;;;;;;;;5020587;28;20197;-59
2023/05/02 11:57:52;;;;;;;5.90;2.07;;;;;;;;;;5019677;28;20202;-58
2023/05/02 12:00:18;;;;;;;3.30;1.90;;;;;;;;;;5021112;28;20222;-58
2023/05/02 12:02:45;;;;;;;2.40;1.57;;;;;;;;;;5020592;28;20202;-59
2023/05/02 12:05:12;;;;;;;3.20;1.90;;;;;;;;;;5018831;28;20309;-57
2023/05/02 12:07:38;;;;;;;2.80;1.67;;;;;;;;;;5021310;28;20228;-58
2023/05/02 12:10:05;;;;;;;2.63;1.93;;;;;;;;;;5020629;28;20222;-59
2023/05/02 12:12:32;;;;;;;2.97;1.70;;;;;;;;;;5019129;28;20205;-58
2023/05/02 12:14:58;;;;;;;2.20;1.77;;;;;;;;;;5020699;28;20769;-58
2023/05/02 12:17:24;;;;;;;3.37;1.40;;;;;;;;;;5020206;28;20198;-58
2023/05/02 12:19:50;;;;;;;2.77;1.90;;;;;;;;;;5018960;28;20737;-58
2023/05/02 12:22:17;;;;;;;2.40;1.87;;;;;;;;;;5020951;28;20196;-58
2023/05/02 12:24:43;;;;;;;2.47;1.57;;;;;;;;;;5020241;28;20204;-59
2023/05/02 12:27:10;;;;;;;3.07;1.90;;;;;;;;;;5019401;28;20212;-58
2023/05/02 12:29:41;;;;;;;3.03;2.30;;;;;;;;;;5021021;28;20256;-59
2023/05/02 12:32:07;;;;;;;4.10;2.20;;;;;;;;;;5021006;28;20202;-59
2023/05/02 12:34:33;;;;;;;2.83;1.90;;;;;;;;;;5020601;28;20217;-59
2023/05/02 12:36:59;;;;;;;3.63;2.33;;;;;;;;;;5024600;28;20791;-59
2023/05/02 12:39:33;;;;;;;3.37;2.13;;;;;;;;;;5024130;28;20193;-59
2023/05/02 12:41:59;;;;;;;5.03;2.13;;;;;;;;;;5023367;28;20289;-59
2023/05/02 12:44:35;;;;;;;3.67;1.90;;;;;;;;;;5023792;28;20193;-59
2023/05/02 12:47:03;;;;;;;2.80;2.00;;;;;;;;;;5023736;28;20197;-59
2023/05/02 12:49:29;;;;;;;2.20;1.77;;;;;;;;;;5022864;28;20988;-59
2023/05/02 12:51:55;;;;;;;4.03;1.80;;;;;;;;;;5024746;28;20218;-59
2023/05/02 12:54:21;;;;;;;2.00;1.60;;;;;;;;;;5023527;28;20712;-59
2023/05/02 12:56:50;;;;;;;2.53;1.70;;;;;;;;;;5023172;28;20205;-59
2023/05/02 12:59:25;;;;;;;2.53;1.50;;;;;;;;;;5024482;28;20212;-57
2023/05/02 13:01:51;;;;;;;5.03;1.67;;;;;;;;;;5024678;28;20200;-59
2023/05/02 13:04:18;;;;;;;2.73;1.30;;;;;;;;;;5022700;28;20263;-59
2023/05/02 13:06:44;;;;;;;2.07;1.50;;;;;;;;;;5023188;28;20225;-59
2023/05/02 13:09:11;;;;;;;2.47;1.40;;;;;;;;;;5024531;28;20208;-59
2023/05/02 13:11:38;;;;;;;3.93;1.57;;;;;;;;;;5034886;28;20284;-59
2023/05/02 13:14:04;;;;;;;2.30;1.50;;;;;;;;;;5030146;28;20197;-58
2023/05/02 13:16:32;;;;;;;3.50;1.60;;;;;;;;;;5054265;28;20279;-58
2023/05/02 13:18:58;;;;;;;4.07;1.80;;;;;;;;;;5054229;28;20202;-58
2023/05/02 13:21:25;;;;;;;2.90;1.37;;;;;;;;;;5054138;28;20207;-59
2023/05/02 13:23:54;;;;;;;3.67;1.80;;;;;;;;;;5054526;28;20207;-61
2023/05/02 13:26:20;;;;;;;2.10;1.70;;;;;;;;;;5054105;28;20705;-59
2023/05/02 13:28:46;;;;;;;4.43;2.00;;;;;;;;;;5054127;28;20536;-60
2023/05/02 13:31:12;;;;;;;2.93;1.63;;;;;;;;;;5050514;28;20365;-61
2023/05/02 13:33:37;;;;;;;3.50;1.50;;;;;;;;;;5054274;28;20562;-57
2023/05/02 13:36:04;;;;;;;2.47;1.70;;;;;;;;;;5054379;28;20224;-60
2023/05/02 13:38:32;;;;;;;3.17;1.70;;;;;;;;;;5054485;28;20601;-59
2023/05/02 13:40:58;;;;;;;5.03;1.67;;;;;;;;;;5054202;28;20197;-61
2023/05/02 13:43:24;;;;;;;2.90;2.00;;;;;;;;;;5054003;28;20204;-61
2023/05/02 13:45:51;;;;;;;2.40;1.70;;;;;;;;;;5053721;28;20203;-64
2023/05/02 13:48:17;;;;;;;2.83;1.60;;;;;;;;;;5053892;28;20627;-57
2023/05/02 13:50:43;;;;;;;2.93;1.70;;;;;;;;;;5053806;28;20520;-62
2023/05/02 13:53:09;;;;;;;2.73;2.00;;;;;;;;;;5053796;28;20589;-62
2023/05/02 13:55:36;;;;;;;2.80;1.67;;;;;;;;;;5053936;28;20214;-62
2023/05/02 13:58:02;;;;;;;8.03;2.60;;;;;;;;;;5053783;28;20204;-62
2023/05/02 14:00:28;;;;;;;3.63;1.70;;;;;;;;;;5053658;28;20684;-62
2023/05/02 14:02:54;;;;;;;3.07;1.83;;;;;;;;;;5053773;28;20204;-62
2023/05/02 14:05:20;;;;;;;3.97;1.70;;;;;;;;;;5053492;28;20212;-61
2023/05/02 14:07:46;;;;;;;2.53;1.60;;;;;;;;;;5053912;28;20196;-61
2023/05/02 14:10:12;;;;;;;2.40;1.23;;;;;;;;;;5053547;28;20724;-61
2023/05/02 14:12:40;;;;;;;3.70;1.70;;;;;;;;;;5053392;28;20196;-61
2023/05/02 14:15:06;;;;;;;2.17;1.50;;;;;;;;;;5053692;28;20200;-62
2023/05/02 14:17:32;;;;;;;2.33;1.67;;;;;;;;;;5053258;28;20253;-62
2023/05/02 14:19:58;;;;;;;2.33;1.70;;;;;;;;;;5053344;28;20298;-62
2023/05/02 14:22:24;;;;;;;3.83;1.70;;;;;;;;;;5053274;28;20239;-62
2023/05/02 14:24:50;;;;;;;4.20;2.10;;;;;;;;;;5053525;28;20634;-62
2023/05/02 14:27:17;;;;;;;4.73;1.80;;;;;;;;;;5053070;28;20728;-62
2023/05/02 14:29:44;;;;;;;2.67;1.47;;;;;;;;;;5052994;28;20236;-62
2023/05/02 14:32:10;;;;;;;2.40;1.73;;;;;;;;;;5053168;28;20204;-61
2023/05/02 14:34:37;;;;;;;3.63;1.60;;;;;;;;;;5053112;28;20196;-61
2023/05/02 14:37:03;;;;;;;3.57;1.50;;;;;;;;;;5053106;28;20673;-62